KBUR/BUR METAR and TAF weather

Enter ICAO airport designator
Station Type Date Time Source
KBUR METAR 2020/04/07 03:53 UTC NOAA

KBUR 070353Z 16004KT 10SM SCT055 OVC070 12/05 A2998 RMK AO2 SLP145 T01220050


Station Type Date Time Source
KBUR Decoded METAR 2020/04/07 03:53 UTC NOAA

BURBANK-GLENDALE-PASADENA, CA, United States (KBUR) 34-12N 118-22W 217M
Apr 06, 2020 - 11:53 PM EDT / 2020.04.07 0353 UTC
Wind: from the SSE (160 degrees) at 5 MPH (4 KT):0
Visibility: 10 mile(s):0
Sky conditions: overcast
Temperature: 54.0 F (12.2 C)
Dew Point: 41.0 F (5.0 C)
Relative Humidity: 61%
Pressure (altimeter): 29.98 in. Hg (1015 hPa)
ob: KBUR 070353Z 16004KT 10SM SCT055 OVC070 12/05 A2998 RMK AO2 SLP145 T01220050
cycle: 4

Station Type Date Time Source
KBUR TAF 2020/04/07 02:30 UTC NOAA

TAF
AMD KBUR 070229Z 0702/0724 19006KT P6SM OVC080
FM070600 VRB03KT P6SM SCT080
FM072100 20006KT 4SM -SHRA BR OVC025

Example: see airport list